sensor_id;sensor_type;location;lat;lon;timestamp;pressure;altitude;pressure_sealevel;temperature;humidity
71194;BME280;58903;47.210;8.618;2022-11-12T00:00:14;95705.56;;;25.16;45.91
71194;BME280;58903;47.210;8.618;2022-11-12T00:02:44;95704.03;;;25.15;46.37
71194;BME280;58903;47.210;8.618;2022-11-12T00:05:15;95712.28;;;25.15;46.49
71194;BME280;58903;47.210;8.618;2022-11-12T00:07:42;95706.00;;;25.14;46.36
71194;BME280;58903;47.210;8.618;2022-11-12T00:10:11;95710.56;;;25.17;46.30
71194;BME280;58903;47.210;8.618;2022-11-12T00:12:38;95716.09;;;25.17;46.39
71194;BME280;58903;47.210;8.618;2022-11-12T00:15:13;95718.06;;;25.17;46.18
71194;BME280;58903;47.210;8.618;2022-11-12T00:17:40;95732.31;;;25.15;46.59
71194;BME280;58903;47.210;8.618;2022-11-12T00:20:15;95728.34;;;25.16;45.97
71194;BME280;58903;47.210;8.618;2022-11-12T00:22:44;95730.34;;;25.16;46.04
71194;BME280;58903;47.210;8.618;2022-11-12T00:25:10;95731.56;;;25.15;46.45
71194;BME280;58903;47.210;8.618;2022-11-12T00:27:36;95725.28;;;25.14;46.35
71194;BME280;58903;47.210;8.618;2022-11-12T00:30:04;95727.59;;;25.16;46.49
71194;BME280;58903;47.210;8.618;2022-11-12T00:32:39;95726.81;;;25.15;46.31
71194;BME280;58903;47.210;8.618;2022-11-12T00:35:06;95722.84;;;25.16;46.00
71194;BME280;58903;47.210;8.618;2022-11-12T00:37:37;95729.09;;;25.17;46.20
71194;BME280;58903;47.210;8.618;2022-11-12T00:40:03;95719.78;;;25.14;46.00
71194;BME280;58903;47.210;8.618;2022-11-12T00:42:31;95724.06;;;25.15;46.81
71194;BME280;58903;47.210;8.618;2022-11-12T00:44:58;95724.06;;;25.15;45.84
71194;BME280;58903;47.210;8.618;2022-11-12T00:47:27;95722.06;;;25.16;46.79
71194;BME280;58903;47.210;8.618;2022-11-12T00:50:25;95722.06;;;25.16;46.65
71194;BME280;58903;47.210;8.618;2022-11-12T00:52:52;95724.06;;;25.15;45.67
71194;BME280;58903;47.210;8.618;2022-11-12T00:55:19;95723.78;;;25.13;46.40
71194;BME280;58903;47.210;8.618;2022-11-12T00:57:47;95725.28;;;25.14;45.89
71194;BME280;58903;47.210;8.618;2022-11-12T01:00:28;95727.75;;;25.12;46.67
71194;BME280;58903;47.210;8.618;2022-11-12T01:03:02;95725.78;;;25.13;46.09
71194;BME280;58903;47.210;8.618;2022-11-12T01:05:32;95720.75;;;25.11;46.46
71194;BME280;58903;47.210;8.618;2022-11-12T01:08:00;95727.47;;;25.10;46.08
71194;BME280;58903;47.210;8.618;2022-11-12T01:10:26;95725.50;;;25.11;46.41
71194;BME280;58903;47.210;8.618;2022-11-12T01:12:53;95720.75;;;25.11;45.96
71194;BME280;58903;47.210;8.618;2022-11-12T01:15:30;95715.53;;;25.13;46.50
71194;BME280;58903;47.210;8.618;2022-11-12T01:17:56;95717.22;;;25.11;46.44
71194;BME280;58903;47.210;8.618;2022-11-12T01:20:22;95720.47;;;25.09;46.42
71194;BME280;58903;47.210;8.618;2022-11-12T01:22:58;95722.44;;;25.09;46.26
71194;BME280;58903;47.210;8.618;2022-11-12T01:25:29;95719.97;;;25.11;46.69
71194;BME280;58903;47.210;8.618;2022-11-12T01:27:55;95716.00;;;25.12;46.29
71194;BME280;58903;47.210;8.618;2022-11-12T01:30:24;95713.72;;;25.10;46.01
71194;BME280;58903;47.210;8.618;2022-11-12T01:32:52;95708.69;;;25.09;46.45
71194;BME280;58903;47.210;8.618;2022-11-12T01:35:22;95708.69;;;25.09;46.48
71194;BME280;58903;47.210;8.618;2022-11-12T01:37:48;95694.94;;;25.09;46.23
71194;BME280;58903;47.210;8.618;2022-11-12T01:40:14;95696.63;;;25.06;46.15
71194;BME280;58903;47.210;8.618;2022-11-12T01:42:51;95699.22;;;25.10;46.30
71194;BME280;58903;47.210;8.618;2022-11-12T01:45:21;95696.47;;;25.10;46.25
71194;BME280;58903;47.210;8.618;2022-11-12T01:47:53;95692.16;;;25.09;46.05
71194;BME280;58903;47.210;8.618;2022-11-12T01:53:10;95687.44;;;25.09;46.04
71194;BME280;58903;47.210;8.618;2022-11-12T01:55:40;95692.66;;;25.07;46.25
71194;BME280;58903;47.210;8.618;2022-11-12T01:58:38;95688.66;;;25.08;46.37
71194;BME280;58903;47.210;8.618;2022-11-12T02:01:13;95685.44;;;25.10;46.55
71194;BME280;58903;47.210;8.618;2022-11-12T02:03:39;95684.69;;;25.09;46.89
71194;BME280;58903;47.210;8.618;2022-11-12T02:06:10;95682.69;;;25.10;45.93
71194;BME280;58903;47.210;8.618;2022-11-12T02:08:39;95685.13;;;25.08;46.13
71194;BME280;58903;47.210;8.618;2022-11-12T02:11:14;95681.66;;;25.07;46.01
71194;BME280;58903;47.210;8.618;2022-11-12T02:13:43;95680.88;;;25.07;46.13
71194;BME280;58903;47.210;8.618;2022-11-12T02:16:36;95681.16;;;25.09;46.22
71194;BME280;58903;47.210;8.618;2022-11-12T02:19:35;95673.09;;;25.05;46.21
71194;BME280;58903;47.210;8.618;2022-11-12T02:22:10;95687.16;;;25.07;46.00
71194;BME280;58903;47.210;8.618;2022-11-12T02:24:49;95679.63;;;25.08;46.43
71194;BME280;58903;47.210;8.618;2022-11-12T02:27:16;95680.88;;;25.07;46.48
71194;BME280;58903;47.210;8.618;2022-11-12T02:29:42;95673.84;;;25.06;46.05
71194;BME280;58903;47.210;8.618;2022-11-12T02:32:16;95680.59;;;25.05;46.75
71194;BME280;58903;47.210;8.618;2022-11-12T02:34:44;95672.34;;;25.05;46.33
71194;BME280;58903;47.210;8.618;2022-11-12T02:37:10;95684.84;;;25.06;46.73
71194;BME280;58903;47.210;8.618;2022-11-12T02:39:38;95683.34;;;25.05;45.90
71194;BME280;58903;47.210;8.618;2022-11-12T02:42:15;95680.88;;;25.07;46.60
71194;BME280;58903;47.210;8.618;2022-11-12T02:44:43;95683.34;;;25.05;46.31
71194;BME280;58903;47.210;8.618;2022-11-12T02:47:09;95681.09;;;25.03;46.68
71194;BME280;58903;47.210;8.618;2022-11-12T02:49:40;95687.31;;;25.04;45.96
71194;BME280;58903;47.210;8.618;2022-11-12T02:52:08;95691.88;;;25.07;46.82
71194;BME280;58903;47.210;8.618;2022-11-12T02:54:50;95688.38;;;25.06;46.25
71194;BME280;58903;47.210;8.618;2022-11-12T02:57:16;95678.13;;;25.07;46.50
71194;BME280;58903;47.210;8.618;2022-11-12T02:59:44;95682.31;;;25.02;45.99
71194;BME280;58903;47.210;8.618;2022-11-12T03:02:29;95680.50;;;24.99;46.25
71194;BME280;58903;47.210;8.618;2022-11-12T03:04:58;95688.75;;;24.99;46.36
71194;BME280;58903;47.210;8.618;2022-11-12T03:07:26;95689.50;;;25.00;46.79
71194;BME280;58903;47.210;8.618;2022-11-12T03:09:52;95678.50;;;25.00;46.42
71194;BME280;58903;47.210;8.618;2022-11-12T03:12:19;95674.53;;;25.01;46.37
71194;BME280;58903;47.210;8.618;2022-11-12T03:14:56;95674.25;;;24.99;46.38
71194;BME280;58903;47.210;8.618;2022-11-12T03:17:28;95671.38;;;24.93;46.18
71194;BME280;58903;47.210;8.618;2022-11-12T03:20:00;95670.44;;;24.96;46.38
71194;BME280;58903;47.210;8.618;2022-11-12T03:22:35;95664.19;;;24.96;46.34
71194;BME280;58903;47.210;8.618;2022-11-12T03:25:02;95673.97;;;24.97;46.65
71194;BME280;58903;47.210;8.618;2022-11-12T03:27:29;95667.69;;;24.96;45.86
71194;BME280;58903;47.210;8.618;2022-11-12T03:30:04;95667.22;;;24.98;46.67
71194;BME280;58903;47.210;8.618;2022-11-12T03:32:43;95672.16;;;24.94;46.61
71194;BME280;58903;47.210;8.618;2022-11-12T03:35:12;95670.91;;;24.95;46.90
71194;BME280;58903;47.210;8.618;2022-11-12T03:37:40;95665.88;;;24.93;46.59
71194;BME280;58903;47.210;8.618;2022-11-12T03:40:10;95669.19;;;24.97;46.86
71194;BME280;58903;47.210;8.618;2022-11-12T03:42:39;95657.16;;;24.95;46.32
71194;BME280;58903;47.210;8.618;2022-11-12T03:45:09;95653.16;;;24.96;46.14
71194;BME280;58903;47.210;8.618;2022-11-12T03:47:49;95653.16;;;24.96;46.72
71194;BME280;58903;47.210;8.618;2022-11-12T03:50:22;95647.66;;;24.96;45.97
71194;BME280;58903;47.210;8.618;2022-11-12T03:53:17;95645.97;;;24.98;46.01
71194;BME280;58903;47.210;8.618;2022-11-12T03:55:44;95649.66;;;24.95;46.20
71194;BME280;58903;47.210;8.618;2022-11-12T03:58:09;95650.41;;;24.96;45.90
71194;BME280;58903;47.210;8.618;2022-11-12T04:00:35;95645.56;;;24.91;46.68
71194;BME280;58903;47.210;8.618;2022-11-12T04:03:37;95644.06;;;24.90;46.41
71194;BME280;58903;47.210;8.618;2022-11-12T04:06:14;95650.13;;;24.94;46.63
71194;BME280;58903;47.210;8.618;2022-11-12T04:08:58;95643.59;;;24.91;46.86
71194;BME280;58903;47.210;8.618;2022-11-12T04:11:33;95653.75;;;24.85;46.98
71194;BME280;58903;47.210;8.618;2022-11-12T04:13:59;95644.72;;;24.85;46.48
71194;BME280;58903;47.210;8.618;2022-11-12T04:16:36;95642.91;;;24.82;46.74
71194;BME280;58903;47.210;8.618;2022-11-12T04:19:49;95647.88;;;24.78;46.51
71194;BME280;58903;47.210;8.618;2022-11-12T04:22:34;95629.25;;;24.73;46.74
71194;BME280;58903;47.210;8.618;2022-11-12T04:25:06;95627.44;;;24.69;46.87
71194;BME280;58903;47.210;8.618;2022-11-12T04:28:00;95624.69;;;24.69;46.98
71194;BME280;58903;47.210;8.618;2022-11-12T04:30:30;95628.97;;;24.70;47.61
71194;BME280;58903;47.210;8.618;2022-11-12T04:33:07;95630.19;;;24.69;46.89
71194;BME280;58903;47.210;8.618;2022-11-12T04:35:35;95632.31;;;24.75;47.38
71194;BME280;58903;47.210;8.618;2022-11-12T04:38:01;95630.19;;;24.69;47.22
71194;BME280;58903;47.210;8.618;2022-11-12T04:40:40;95628.66;;;24.68;47.49
71194;BME280;58903;47.210;8.618;2022-11-12T04:43:35;95632.66;;;24.67;47.76
71194;BME280;58903;47.210;8.618;2022-11-12T04:46:28;95621.38;;;24.65;47.27
71194;BME280;58903;47.210;8.618;2022-11-12T04:49:06;95623.38;;;24.65;47.40
71194;BME280;58903;47.210;8.618;2022-11-12T04:51:44;95623.94;;;24.69;46.96
71194;BME280;58903;47.210;8.618;2022-11-12T04:54:30;95616.94;;;24.68;46.88
71194;BME280;58903;47.210;8.618;2022-11-12T04:57:07;95618.63;;;24.65;47.22
71194;BME280;58903;47.210;8.618;2022-11-12T04:59:34;95614.34;;;24.64;46.95
71194;BME280;58903;47.210;8.618;2022-11-12T05:01:59;95613.91;;;24.66;46.95
71194;BME280;58903;47.210;8.618;2022-11-12T05:04:26;95611.59;;;24.64;47.19
71194;BME280;58903;47.210;8.618;2022-11-12T05:06:57;95615.59;;;24.63;46.92
71194;BME280;58903;47.210;8.618;2022-11-12T05:09:28;95619.56;;;24.62;46.99
71194;BME280;58903;47.210;8.618;2022-11-12T05:11:55;95611.31;;;24.62;46.89
71194;BME280;58903;47.210;8.618;2022-11-12T05:14:24;95603.06;;;24.62;46.62
71194;BME280;58903;47.210;8.618;2022-11-12T05:17:14;95602.59;;;24.64;47.55
71194;BME280;58903;47.210;8.618;2022-11-12T05:19:47;95600.59;;;24.64;46.92
71194;BME280;58903;47.210;8.618;2022-11-12T05:22:25;95601.84;;;24.63;46.96
71194;BME280;58903;47.210;8.618;2022-11-12T05:24:51;95596.06;;;24.61;46.92
71194;BME280;58903;47.210;8.618;2022-11-12T05:27:43;95599.66;;;24.67;47.58
71194;BME280;58903;47.210;8.618;2022-11-12T05:30:18;95594.63;;;24.66;46.75
71194;BME280;58903;47.210;8.618;2022-11-12T05:32:44;95594.34;;;24.64;46.70
71194;BME280;58903;47.210;8.618;2022-11-12T05:35:10;95594.06;;;24.62;47.14
71194;BME280;58903;47.210;8.618;2022-11-12T05:37:36;95594.81;;;24.62;46.86
71194;BME280;58903;47.210;8.618;2022-11-12T05:40:01;95598.81;;;24.61;47.64
71194;BME280;58903;47.210;8.618;2022-11-12T05:42:43;95595.28;;;24.61;47.29
71194;BME280;58903;47.210;8.618;2022-11-12T05:45:20;95590.56;;;24.61;47.44
71194;BME280;58903;47.210;8.618;2022-11-12T05:47:56;95595.28;;;24.61;47.04
71194;BME280;58903;47.210;8.618;2022-11-12T05:50:23;95591.31;;;24.62;46.67
71194;BME280;58903;47.210;8.618;2022-11-12T05:52:49;95594.53;;;24.60;46.97
71194;BME280;58903;47.210;8.618;2022-11-12T05:55:16;95593.47;;;24.58;47.15
71194;BME280;58903;47.210;8.618;2022-11-12T05:57:42;95599.56;;;24.62;47.49
71194;BME280;58903;47.210;8.618;2022-11-12T06:00:17;95604.59;;;24.63;46.78
71194;BME280;58903;47.210;8.618;2022-11-12T06:02:56;95608.56;;;24.62;47.10
71194;BME280;58903;47.210;8.618;2022-11-12T06:05:24;95610.09;;;24.63;47.03
71194;BME280;58903;47.210;8.618;2022-11-12T06:07:59;95612.09;;;24.63;47.19
71194;BME280;58903;47.210;8.618;2022-11-12T06:10:26;95614.56;;;24.61;46.88
71194;BME280;58903;47.210;8.618;2022-11-12T06:12:53;95615.97;;;24.56;47.23
71194;BME280;58903;47.210;8.618;2022-11-12T06:15:21;95623.19;;;24.54;47.28
71194;BME280;58903;47.210;8.618;2022-11-12T06:17:47;95619.38;;;24.51;47.05
71194;BME280;58903;47.210;8.618;2022-11-12T06:20:19;95615.69;;;24.54;47.40
71194;BME280;58903;47.210;8.618;2022-11-12T06:23:03;95623.19;;;24.54;47.51
71194;BME280;58903;47.210;8.618;2022-11-12T06:25:31;95628.50;;;24.57;47.63
71194;BME280;58903;47.210;8.618;2022-11-12T06:28:03;95634.84;;;24.63;47.13
71194;BME280;58903;47.210;8.618;2022-11-12T06:30:41;95639.59;;;24.63;47.45
71194;BME280;58903;47.210;8.618;2022-11-12T06:33:13;95636.84;;;24.63;47.55
71194;BME280;58903;47.210;8.618;2022-11-12T06:35:41;95639.59;;;24.63;47.17
71194;BME280;58903;47.210;8.618;2022-11-12T06:38:07;95637.59;;;24.63;47.06
71194;BME280;58903;47.210;8.618;2022-11-12T06:40:45;95646.13;;;24.65;47.04
71194;BME280;58903;47.210;8.618;2022-11-12T06:43:27;95639.38;;;24.66;47.41
71194;BME280;58903;47.210;8.618;2022-11-12T06:46:05;95644.88;;;24.66;47.13
71194;BME280;58903;47.210;8.618;2022-11-12T06:48:34;95647.34;;;24.64;47.09
71194;BME280;58903;47.210;8.618;2022-11-12T06:51:14;95639.59;;;24.63;47.33
71194;BME280;58903;47.210;8.618;2022-11-12T06:53:42;95637.59;;;24.63;46.97
71194;BME280;58903;47.210;8.618;2022-11-12T06:56:09;95633.16;;;24.66;47.45
71194;BME280;58903;47.210;8.618;2022-11-12T06:58:38;95629.44;;;24.69;47.24
71194;BME280;58903;47.210;8.618;2022-11-12T07:01:16;95630.00;;;24.73;47.63
71194;BME280;58903;47.210;8.618;2022-11-12T07:03:52;95622.66;;;24.79;47.19
71194;BME280;58903;47.210;8.618;2022-11-12T07:06:19;95623.38;;;24.80;46.41
71194;BME280;58903;47.210;8.618;2022-11-12T07:08:57;95634.38;;;24.80;45.79
71194;BME280;58903;47.210;8.618;2022-11-12T07:11:26;95623.38;;;24.80;46.07
71194;BME280;58903;47.210;8.618;2022-11-12T07:13:52;95632.41;;;24.80;46.57
71194;BME280;58903;47.210;8.618;2022-11-12T07:16:18;95639.16;;;24.79;46.73
71194;BME280;58903;47.210;8.618;2022-11-12T07:18:45;95646.91;;;24.81;46.77
71194;BME280;58903;47.210;8.618;2022-11-12T07:21:17;95637.41;;;24.82;46.17
71194;BME280;58903;47.210;8.618;2022-11-12T07:23:47;95640.66;;;24.80;46.58
71194;BME280;58903;47.210;8.618;2022-11-12T07:28:41;95649.41;;;24.79;46.75
71194;BME280;58903;47.210;8.618;2022-11-12T07:31:10;95651.94;;;24.82;46.68
71194;BME280;58903;47.210;8.618;2022-11-12T07:33:37;95656.03;;;24.87;47.93
71194;BME280;58903;47.210;8.618;2022-11-12T07:36:07;95656.59;;;24.91;47.57
71194;BME280;58903;47.210;8.618;2022-11-12T07:38:38;95651.34;;;24.93;49.39
71194;BME280;58903;47.210;8.618;2022-11-12T07:43:37;95651.34;;;24.93;47.18
71194;BME280;58903;47.210;8.618;2022-11-12T07:46:11;95643.69;;;24.97;46.58
71194;BME280;58903;47.210;8.618;2022-11-12T07:48:45;95638.47;;;24.99;46.16
71194;BME280;58903;47.210;8.618;2022-11-12T07:51:16;95635.91;;;24.95;46.64
71194;BME280;58903;47.210;8.618;2022-11-12T07:53:46;95646.91;;;24.95;46.40
71194;BME280;58903;47.210;8.618;2022-11-12T07:56:17;95647.38;;;24.94;46.33
71194;BME280;58903;47.210;8.618;2022-11-12T07:58:44;95648.81;;;24.89;46.54
71194;BME280;58903;47.210;8.618;2022-11-12T08:01:35;95651.78;;;24.86;46.71
71194;BME280;58903;47.210;8.618;2022-11-12T08:04:09;95643.97;;;24.84;47.21
71194;BME280;58903;47.210;8.618;2022-11-12T08:06:37;95652.22;;;24.84;47.42
71194;BME280;58903;47.210;8.618;2022-11-12T08:09:07;95656.13;;;24.78;47.70
71194;BME280;58903;47.210;8.618;2022-11-12T08:11:34;95663.78;;;24.73;47.81
71194;BME280;58903;47.210;8.618;2022-11-12T08:14:04;95664.38;;;24.78;47.46
71194;BME280;58903;47.210;8.618;2022-11-12T08:16:30;95654.91;;;24.79;47.67
71194;BME280;58903;47.210;8.618;2022-11-12T08:19:22;95654.91;;;24.79;47.48
71194;BME280;58903;47.210;8.618;2022-11-12T08:21:48;95657.16;;;24.80;47.45
71194;BME280;58903;47.210;8.618;2022-11-12T08:24:24;95647.69;;;24.81;47.42
71194;BME280;58903;47.210;8.618;2022-11-12T08:26:59;95654.69;;;24.82;46.96
71194;BME280;58903;47.210;8.618;2022-11-12T08:29:35;95658.50;;;24.85;46.95
71194;BME280;58903;47.210;8.618;2022-11-12T08:32:03;95651.28;;;24.87;47.03
71194;BME280;58903;47.210;8.618;2022-11-12T08:34:29;95649.00;;;24.86;46.78
71194;BME280;58903;47.210;8.618;2022-11-12T08:36:55;95638.56;;;24.90;47.11
71194;BME280;58903;47.210;8.618;2022-11-12T08:39:23;95646.81;;;24.90;46.69
71194;BME280;58903;47.210;8.618;2022-11-12T08:41:52;95640.06;;;24.91;46.60
71194;BME280;58903;47.210;8.618;2022-11-12T08:44:27;95643.88;;;24.93;46.17
71194;BME280;58903;47.210;8.618;2022-11-12T08:46:54;95643.59;;;24.91;46.93
71194;BME280;58903;47.210;8.618;2022-11-12T08:49:25;95657.16;;;24.95;46.92
71194;BME280;58903;47.210;8.618;2022-11-12T08:51:57;95659.63;;;24.93;46.34
71194;BME280;58903;47.210;8.618;2022-11-12T08:54:23;95662.38;;;24.93;46.32
71194;BME280;58903;47.210;8.618;2022-11-12T08:56:50;95662.66;;;24.95;46.32
71194;BME280;58903;47.210;8.618;2022-11-12T08:59:17;95654.13;;;24.93;46.38
71194;BME280;58903;47.210;8.618;2022-11-12T09:01:45;95650.13;;;24.94;47.21
71194;BME280;58903;47.210;8.618;2022-11-12T09:04:12;95644.63;;;24.94;46.98
71194;BME280;58903;47.210;8.618;2022-11-12T09:06:38;95640.63;;;24.95;46.90
71194;BME280;58903;47.210;8.618;2022-11-12T09:09:04;95645.13;;;24.92;46.43
71194;BME280;58903;47.210;8.618;2022-11-12T09:11:31;95641.59;;;24.92;46.69
71194;BME280;58903;47.210;8.618;2022-11-12T09:13:58;95656.19;;;24.98;46.79
71194;BME280;58903;47.210;8.618;2022-11-12T09:16:35;95660.78;;;25.01;46.45
71194;BME280;58903;47.210;8.618;2022-11-12T09:19:02;95663.41;;;24.95;45.82
71194;BME280;58903;47.210;8.618;2022-11-12T09:21:30;95659.91;;;24.95;46.09
71194;BME280;58903;47.210;8.618;2022-11-12T09:23:56;95659.63;;;24.93;45.53
71194;BME280;58903;47.210;8.618;2022-11-12T09:26:28;95653.84;;;24.91;46.05
71194;BME280;58903;47.210;8.618;2022-11-12T09:29:00;95653.84;;;24.91;45.92
71194;BME280;58903;47.210;8.618;2022-11-12T09:31:26;95662.38;;;24.93;45.22
71194;BME280;58903;47.210;8.618;2022-11-12T09:33:51;95654.88;;;24.93;46.27
71194;BME280;58903;47.210;8.618;2022-11-12T09:36:17;95653.38;;;24.92;45.53
71194;BME280;58903;47.210;8.618;2022-11-12T09:38:48;95655.38;;;24.92;45.41
71194;BME280;58903;47.210;8.618;2022-11-12T09:41:24;95653.38;;;24.92;45.78
71194;BME280;58903;47.210;8.618;2022-11-12T09:47:05;95665.13;;;24.93;45.38
71194;BME280;58903;47.210;8.618;2022-11-12T09:49:44;95663.13;;;24.93;45.49
71194;BME280;58903;47.210;8.618;2022-11-12T09:52:29;95658.13;;;24.92;45.50
71194;BME280;58903;47.210;8.618;2022-11-12T09:55:28;95655.09;;;24.90;45.39
71194;BME280;58903;47.210;8.618;2022-11-12T09:58:09;95659.25;;;24.85;45.56
71194;BME280;58903;47.210;8.618;2022-11-12T10:00:36;95660.09;;;24.91;45.92
71194;BME280;58903;47.210;8.618;2022-11-12T10:06:38;95662.09;;;24.91;45.33
71194;BME280;58903;47.210;8.618;2022-11-12T10:09:19;95664.56;;;24.89;45.48
71194;BME280;58903;47.210;8.618;2022-11-12T10:21:18;95656.59;;;24.91;45.75
71194;BME280;58903;47.210;8.618;2022-11-12T10:23:59;95654.81;;;24.88;45.58
71194;BME280;58903;47.210;8.618;2022-11-12T10:26:33;95648.03;;;24.89;46.14
71194;BME280;58903;47.210;8.618;2022-11-12T10:31:37;95641.13;;;24.93;46.05
71194;BME280;58903;47.210;8.618;2022-11-12T10:36:45;95629.63;;;24.95;45.76
71194;BME280;58903;47.210;8.618;2022-11-12T10:42:10;95620.06;;;24.90;46.00
71194;BME280;58903;47.210;8.618;2022-11-12T10:44:40;95623.84;;;24.93;45.76
71194;BME280;58903;47.210;8.618;2022-11-12T10:53:39;95610.84;;;24.93;45.99
71194;BME280;58903;47.210;8.618;2022-11-12T10:56:31;95612.38;;;24.94;46.59
71194;BME280;58903;47.210;8.618;2022-11-12T10:59:17;95606.88;;;24.94;46.37
71194;BME280;58903;47.210;8.618;2022-11-12T11:01:54;95612.66;;;24.96;46.54
71194;BME280;58903;47.210;8.618;2022-11-12T11:04:29;95618.63;;;24.95;46.35
71194;BME280;58903;47.210;8.618;2022-11-12T11:09:59;95599.34;;;24.95;45.71
71194;BME280;58903;47.210;8.618;2022-11-12T11:12:30;95604.41;;;24.96;45.87
71194;BME280;58903;47.210;8.618;2022-11-12T11:15:18;95595.09;;;24.94;46.18
71194;BME280;58903;47.210;8.618;2022-11-12T11:17:44;95606.09;;;24.94;46.50
71194;BME280;58903;47.210;8.618;2022-11-12T11:23:19;95605.63;;;24.95;46.55
71194;BME280;58903;47.210;8.618;2022-11-12T11:25:51;95610.34;;;24.95;46.06
71194;BME280;58903;47.210;8.618;2022-11-12T11:28:44;95598.13;;;24.96;46.31
71194;BME280;58903;47.210;8.618;2022-11-12T11:33:49;95594.34;;;24.93;45.98
71194;BME280;58903;47.210;8.618;2022-11-12T11:36:35;95590.53;;;24.91;45.88
71194;BME280;58903;47.210;8.618;2022-11-12T11:39:34;95575.56;;;24.92;45.27
71194;BME280;58903;47.210;8.618;2022-11-12T11:51:59;95550.13;;;24.97;45.49
71194;BME280;58903;47.210;8.618;2022-11-12T11:58:24;95554.63;;;25.00;45.48
71194;BME280;58903;47.210;8.618;2022-11-12T12:04:39;95556.34;;;24.97;45.86
71194;BME280;58903;47.210;8.618;2022-11-12T12:10:23;95543.06;;;24.96;46.82
71194;BME280;58903;47.210;8.618;2022-11-12T12:21:14;95538.41;;;25.02;47.54
71194;BME280;58903;47.210;8.618;2022-11-12T12:26:24;95527.13;;;25.00;47.80
71194;BME280;58903;47.210;8.618;2022-11-12T12:29:06;95528.38;;;24.99;47.00
71194;BME280;58903;47.210;8.618;2022-11-12T12:34:33;95528.66;;;25.01;47.42
71194;BME280;58903;47.210;8.618;2022-11-12T12:37:16;95522.66;;;25.02;46.92
71194;BME280;58903;47.210;8.618;2022-11-12T12:40:30;95521.44;;;25.03;46.90
71194;BME280;58903;47.210;8.618;2022-11-12T12:43:25;95517.16;;;25.02;47.14
71194;BME280;58903;47.210;8.618;2022-11-12T12:46:04;95518.19;;;25.05;47.39
71194;BME280;58903;47.210;8.618;2022-11-12T12:48:45;95510.41;;;25.03;46.63
71194;BME280;58903;47.210;8.618;2022-11-12T12:51:12;95513.44;;;25.05;47.33
71194;BME280;58903;47.210;8.618;2022-11-12T12:53:54;95513.16;;;25.03;46.99
71194;BME280;58903;47.210;8.618;2022-11-12T12:58:54;95504.16;;;25.03;46.95
71194;BME280;58903;47.210;8.618;2022-11-12T13:01:34;95504.44;;;25.05;47.08
71194;BME280;58903;47.210;8.618;2022-11-12T13:04:07;95505.66;;;25.04;47.14
71194;BME280;58903;47.210;8.618;2022-11-12T13:06:52;95500.41;;;25.06;46.91
71194;BME280;58903;47.210;8.618;2022-11-12T13:09:28;95498.66;;;25.03;47.08
71194;BME280;58903;47.210;8.618;2022-11-12T13:11:55;95487.91;;;25.05;46.59
71194;BME280;58903;47.210;8.618;2022-11-12T13:15:30;95492.16;;;25.06;47.02
71194;BME280;58903;47.210;8.618;2022-11-12T13:17:46;95485.66;;;25.03;46.59
71194;BME280;58903;47.210;8.618;2022-11-12T13:20:34;95479.94;;;25.07;47.05
71194;BME280;58903;47.210;8.618;2022-11-12T13:23:00;95478.13;;;25.04;47.20
71194;BME280;58903;47.210;8.618;2022-11-12T13:25:38;95481.63;;;25.04;46.96
71194;BME280;58903;47.210;8.618;2022-11-12T13:28:09;95479.66;;;25.05;46.96
71194;BME280;58903;47.210;8.618;2022-11-12T13:31:24;95477.16;;;25.07;47.36
71194;BME280;58903;47.210;8.618;2022-11-12T13:33:51;95474.41;;;25.07;47.06
71194;BME280;58903;47.210;8.618;2022-11-12T13:36:27;95474.41;;;25.07;46.82
71194;BME280;58903;47.210;8.618;2022-11-12T13:39:11;95470.41;;;25.08;47.16
71194;BME280;58903;47.210;8.618;2022-11-12T13:41:55;95475.91;;;25.08;47.29
71194;BME280;58903;47.210;8.618;2022-11-12T13:44:41;95473.47;;;25.10;46.67
71194;BME280;58903;47.210;8.618;2022-11-12T13:47:20;95471.66;;;25.07;47.25
71194;BME280;58903;47.210;8.618;2022-11-12T13:49:55;95472.44;;;25.07;46.69
71194;BME280;58903;47.210;8.618;2022-11-12T13:52:38;95468.91;;;25.07;46.60
71194;BME280;58903;47.210;8.618;2022-11-12T13:55:29;95467.97;;;25.10;46.80
71194;BME280;58903;47.210;8.618;2022-11-12T13:57:55;95466.94;;;25.07;46.90
71194;BME280;58903;47.210;8.618;2022-11-12T14:00:27;95469.94;;;25.09;46.84
71194;BME280;58903;47.210;8.618;2022-11-12T14:03:00;95468.44;;;25.08;46.72
71194;BME280;58903;47.210;8.618;2022-11-12T14:05:38;95469.19;;;25.09;47.36
71194;BME280;58903;47.210;8.618;2022-11-12T14:08:26;95461.19;;;25.11;46.28
71194;BME280;58903;47.210;8.618;2022-11-12T14:14:16;95464.91;;;25.08;47.13
71194;BME280;58903;47.210;8.618;2022-11-12T14:22:39;95461.97;;;25.11;46.81
71194;BME280;58903;47.210;8.618;2022-11-12T14:25:18;95449.44;;;25.10;46.80
71194;BME280;58903;47.210;8.618;2022-11-12T14:27:56;95449.44;;;25.10;46.43
71194;BME280;58903;47.210;8.618;2022-11-12T14:30:30;95444.41;;;25.09;46.88
71194;BME280;58903;47.210;8.618;2022-11-12T14:33:08;95440.72;;;25.12;46.93
71194;BME280;58903;47.210;8.618;2022-11-12T14:35:36;95433.69;;;25.11;46.68
71194;BME280;58903;47.210;8.618;2022-11-12T14:43:47;95439.19;;;25.11;46.12
71194;BME280;58903;47.210;8.618;2022-11-12T14:46:32;95436.16;;;25.09;46.87
71194;BME280;58903;47.210;8.618;2022-11-12T14:49:31;95434.63;;;25.08;47.13
71194;BME280;58903;47.210;8.618;2022-11-12T14:52:26;95441.88;;;25.05;46.32
71194;BME280;58903;47.210;8.618;2022-11-12T14:54:57;95445.84;;;25.04;46.93
71194;BME280;58903;47.210;8.618;2022-11-12T14:57:33;95442.06;;;25.02;46.89
71194;BME280;58903;47.210;8.618;2022-11-12T15:00:16;95453.06;;;25.02;47.14
71194;BME280;58903;47.210;8.618;2022-11-12T15:02:45;95450.59;;;25.04;46.84
71194;BME280;58903;47.210;8.618;2022-11-12T15:05:16;95438.09;;;25.03;46.34
71194;BME280;58903;47.210;8.618;2022-11-12T15:08:07;95437.09;;;25.06;47.20
71194;BME280;58903;47.210;8.618;2022-11-12T15:11:13;95428.56;;;25.04;46.43
71194;BME280;58903;47.210;8.618;2022-11-12T15:13:59;95430.59;;;25.03;47.25